sensor_id;sensor_type;location;lat;lon;timestamp;temperature;humidity
23497;DHT22;11925;48.122;11.560;2023-10-08T00:01:10;16.10;86.50
23497;DHT22;11925;48.122;11.560;2023-10-08T00:03:41;16.10;85.40
23497;DHT22;11925;48.122;11.560;2023-10-08T00:06:16;16.10;86.20
23497;DHT22;11925;48.122;11.560;2023-10-08T00:08:48;16.10;85.00
23497;DHT22;11925;48.122;11.560;2023-10-08T00:11:17;16.10;84.70
23497;DHT22;11925;48.122;11.560;2023-10-08T00:13:45;16.10;84.80
23497;DHT22;11925;48.122;11.560;2023-10-08T00:16:16;16.10;84.30
23497;DHT22;11925;48.122;11.560;2023-10-08T00:18:45;16.10;84.00
23497;DHT22;11925;48.122;11.560;2023-10-08T00:21:20;16.10;83.60
23497;DHT22;11925;48.122;11.560;2023-10-08T00:23:56;16.10;83.10
23497;DHT22;11925;48.122;11.560;2023-10-08T00:26:27;16.10;83.70
23497;DHT22;11925;48.122;11.560;2023-10-08T00:28:59;16.10;84.00
23497;DHT22;11925;48.122;11.560;2023-10-08T00:31:28;16.10;83.30
23497;DHT22;11925;48.122;11.560;2023-10-08T00:33:58;16.10;82.90
23497;DHT22;11925;48.122;11.560;2023-10-08T00:36:28;16.10;83.10
23497;DHT22;11925;48.122;11.560;2023-10-08T00:38:58;16.10;82.90
23497;DHT22;11925;48.122;11.560;2023-10-08T00:41:27;16.10;83.10
23497;DHT22;11925;48.122;11.560;2023-10-08T00:43:58;16.10;83.50
23497;DHT22;11925;48.122;11.560;2023-10-08T00:46:29;16.10;83.00
23497;DHT22;11925;48.122;11.560;2023-10-08T00:49:02;16.10;83.00
23497;DHT22;11925;48.122;11.560;2023-10-08T00:51:55;16.10;83.40
23497;DHT22;11925;48.122;11.560;2023-10-08T00:54:53;16.10;83.40
23497;DHT22;11925;48.122;11.560;2023-10-08T00:57:36;16.10;83.30
23497;DHT22;11925;48.122;11.560;2023-10-08T01:00:10;16.10;83.10
23497;DHT22;11925;48.122;11.560;2023-10-08T01:02:49;16.10;83.10
23497;DHT22;11925;48.122;11.560;2023-10-08T01:05:28;16.10;83.60
23497;DHT22;11925;48.122;11.560;2023-10-08T01:08:15;16.10;83.80
23497;DHT22;11925;48.122;11.560;2023-10-08T01:10:51;16.10;84.00
23497;DHT22;11925;48.122;11.560;2023-10-08T01:13:30;16.10;83.90
23497;DHT22;11925;48.122;11.560;2023-10-08T01:16:03;16.10;84.50
23497;DHT22;11925;48.122;11.560;2023-10-08T01:18:32;16.10;84.10
23497;DHT22;11925;48.122;11.560;2023-10-08T01:21:03;16.10;84.30
23497;DHT22;11925;48.122;11.560;2023-10-08T01:23:37;16.10;84.30
23497;DHT22;11925;48.122;11.560;2023-10-08T01:26:07;16.10;83.90
23497;DHT22;11925;48.122;11.560;2023-10-08T01:28:42;16.10;84.40
23497;DHT22;11925;48.122;11.560;2023-10-08T01:31:11;16.10;84.50
23497;DHT22;11925;48.122;11.560;2023-10-08T01:33:40;16.10;84.00
23497;DHT22;11925;48.122;11.560;2023-10-08T01:36:14;16.10;83.80
23497;DHT22;11925;48.122;11.560;2023-10-08T01:38:44;16.20;84.00
23497;DHT22;11925;48.122;11.560;2023-10-08T01:41:16;16.10;84.30
23497;DHT22;11925;48.122;11.560;2023-10-08T01:43:47;16.10;83.90
23497;DHT22;11925;48.122;11.560;2023-10-08T01:46:17;16.10;83.40
23497;DHT22;11925;48.122;11.560;2023-10-08T01:48:49;16.10;83.80
23497;DHT22;11925;48.122;11.560;2023-10-08T01:51:23;16.10;84.10
23497;DHT22;11925;48.122;11.560;2023-10-08T01:54:05;16.10;84.60
23497;DHT22;11925;48.122;11.560;2023-10-08T01:56:38;16.10;84.50
23497;DHT22;11925;48.122;11.560;2023-10-08T01:59:10;16.20;84.30
23497;DHT22;11925;48.122;11.560;2023-10-08T02:01:41;16.10;83.90
23497;DHT22;11925;48.122;11.560;2023-10-08T02:04:10;16.20;84.50
23497;DHT22;11925;48.122;11.560;2023-10-08T02:06:40;16.10;83.70
23497;DHT22;11925;48.122;11.560;2023-10-08T02:09:10;16.10;83.30
23497;DHT22;11925;48.122;11.560;2023-10-08T02:11:42;16.10;83.40
23497;DHT22;11925;48.122;11.560;2023-10-08T02:14:11;16.10;83.00
23497;DHT22;11925;48.122;11.560;2023-10-08T02:16:42;16.10;83.30
23497;DHT22;11925;48.122;11.560;2023-10-08T02:19:11;16.20;83.50
23497;DHT22;11925;48.122;11.560;2023-10-08T02:21:40;16.20;83.40
23497;DHT22;11925;48.122;11.560;2023-10-08T02:24:14;16.10;83.10
23497;DHT22;11925;48.122;11.560;2023-10-08T02:26:44;16.20;84.20
23497;DHT22;11925;48.122;11.560;2023-10-08T02:29:13;16.10;84.80
23497;DHT22;11925;48.122;11.560;2023-10-08T02:31:42;16.20;85.40
23497;DHT22;11925;48.122;11.560;2023-10-08T02:34:11;16.10;85.90
23497;DHT22;11925;48.122;11.560;2023-10-08T02:36:40;16.10;86.30
23497;DHT22;11925;48.122;11.560;2023-10-08T02:39:10;16.10;86.40
23497;DHT22;11925;48.122;11.560;2023-10-08T02:41:49;16.10;86.30
23497;DHT22;11925;48.122;11.560;2023-10-08T02:44:18;16.10;87.00
23497;DHT22;11925;48.122;11.560;2023-10-08T02:46:49;16.10;87.60
23497;DHT22;11925;48.122;11.560;2023-10-08T02:49:20;16.10;88.00
23497;DHT22;11925;48.122;11.560;2023-10-08T02:51:51;16.10;87.90
23497;DHT22;11925;48.122;11.560;2023-10-08T02:54:21;16.10;88.30
23497;DHT22;11925;48.122;11.560;2023-10-08T02:57:00;16.20;88.90
23497;DHT22;11925;48.122;11.560;2023-10-08T02:59:32;16.20;88.80
23497;DHT22;11925;48.122;11.560;2023-10-08T03:02:09;16.10;89.00
23497;DHT22;11925;48.122;11.560;2023-10-08T03:04:47;16.10;89.50
23497;DHT22;11925;48.122;11.560;2023-10-08T03:07:19;16.10;89.60
23497;DHT22;11925;48.122;11.560;2023-10-08T03:09:59;16.10;89.90
23497;DHT22;11925;48.122;11.560;2023-10-08T03:12:34;16.10;90.20
23497;DHT22;11925;48.122;11.560;2023-10-08T03:15:03;16.20;90.10
23497;DHT22;11925;48.122;11.560;2023-10-08T03:17:42;16.20;90.20
23497;DHT22;11925;48.122;11.560;2023-10-08T03:20:19;16.10;90.30
23497;DHT22;11925;48.122;11.560;2023-10-08T03:23:06;16.10;90.30
23497;DHT22;11925;48.122;11.560;2023-10-08T03:25:41;16.10;90.10
23497;DHT22;11925;48.122;11.560;2023-10-08T03:28:11;16.20;90.10
23497;DHT22;11925;48.122;11.560;2023-10-08T03:30:40;16.10;90.00
23497;DHT22;11925;48.122;11.560;2023-10-08T03:33:17;16.20;90.30
23497;DHT22;11925;48.122;11.560;2023-10-08T03:35:51;16.10;90.00
23497;DHT22;11925;48.122;11.560;2023-10-08T03:38:22;16.10;90.30
23497;DHT22;11925;48.122;11.560;2023-10-08T03:41:07;16.10;90.40
23497;DHT22;11925;48.122;11.560;2023-10-08T03:43:44;16.10;89.90
23497;DHT22;11925;48.122;11.560;2023-10-08T03:46:20;16.10;90.20
23497;DHT22;11925;48.122;11.560;2023-10-08T03:48:52;16.10;90.20
23497;DHT22;11925;48.122;11.560;2023-10-08T03:51:24;16.10;90.50
23497;DHT22;11925;48.122;11.560;2023-10-08T03:53:54;16.10;90.90
23497;DHT22;11925;48.122;11.560;2023-10-08T03:56:26;16.20;91.10
23497;DHT22;11925;48.122;11.560;2023-10-08T03:58:58;16.10;91.20
23497;DHT22;11925;48.122;11.560;2023-10-08T04:01:30;16.20;91.70
23497;DHT22;11925;48.122;11.560;2023-10-08T04:03:59;16.20;92.00
23497;DHT22;11925;48.122;11.560;2023-10-08T04:06:29;16.20;92.30
23497;DHT22;11925;48.122;11.560;2023-10-08T04:09:05;16.10;92.40
23497;DHT22;11925;48.122;11.560;2023-10-08T04:11:47;16.20;92.10
23497;DHT22;11925;48.122;11.560;2023-10-08T04:14:27;16.20;92.60
23497;DHT22;11925;48.122;11.560;2023-10-08T04:16:57;16.20;92.60
23497;DHT22;11925;48.122;11.560;2023-10-08T04:19:26;16.20;92.50
23497;DHT22;11925;48.122;11.560;2023-10-08T04:21:55;16.20;92.60
23497;DHT22;11925;48.122;11.560;2023-10-08T04:24:25;16.20;92.60
23497;DHT22;11925;48.122;11.560;2023-10-08T04:26:56;16.20;92.40
23497;DHT22;11925;48.122;11.560;2023-10-08T04:29:27;16.30;92.70
23497;DHT22;11925;48.122;11.560;2023-10-08T04:34:36;16.40;92.80
23497;DHT22;11925;48.122;11.560;2023-10-08T04:37:04;16.40;93.10
23497;DHT22;11925;48.122;11.560;2023-10-08T04:39:40;16.40;93.30
23497;DHT22;11925;48.122;11.560;2023-10-08T04:42:14;16.40;93.30
23497;DHT22;11925;48.122;11.560;2023-10-08T04:44:46;16.40;93.20
23497;DHT22;11925;48.122;11.560;2023-10-08T04:47:15;16.40;92.90
23497;DHT22;11925;48.122;11.560;2023-10-08T04:49:59;16.40;93.30
23497;DHT22;11925;48.122;11.560;2023-10-08T04:52:32;16.40;93.30
23497;DHT22;11925;48.122;11.560;2023-10-08T04:55:02;16.40;93.50
23497;DHT22;11925;48.122;11.560;2023-10-08T04:57:40;16.50;93.60
23497;DHT22;11925;48.122;11.560;2023-10-08T05:00:12;16.40;93.80
23497;DHT22;11925;48.122;11.560;2023-10-08T05:02:42;16.30;94.00
23497;DHT22;11925;48.122;11.560;2023-10-08T05:05:18;16.30;93.60
23497;DHT22;11925;48.122;11.560;2023-10-08T05:08:05;16.30;93.40
23497;DHT22;11925;48.122;11.560;2023-10-08T05:10:55;16.30;93.30
23497;DHT22;11925;48.122;11.560;2023-10-08T05:13:42;16.30;93.10
23497;DHT22;11925;48.122;11.560;2023-10-08T05:16:24;16.30;92.40
23497;DHT22;11925;48.122;11.560;2023-10-08T05:19:10;16.30;92.00
23497;DHT22;11925;48.122;11.560;2023-10-08T05:22:15;16.30;91.20
23497;DHT22;11925;48.122;11.560;2023-10-08T05:25:09;16.30;91.30
23497;DHT22;11925;48.122;11.560;2023-10-08T05:27:53;16.30;90.90
23497;DHT22;11925;48.122;11.560;2023-10-08T05:30:36;16.30;90.80
23497;DHT22;11925;48.122;11.560;2023-10-08T05:33:10;16.30;90.90
23497;DHT22;11925;48.122;11.560;2023-10-08T05:35:52;16.30;90.80
23497;DHT22;11925;48.122;11.560;2023-10-08T05:38:36;16.30;90.90
23497;DHT22;11925;48.122;11.560;2023-10-08T05:41:26;16.20;91.00
23497;DHT22;11925;48.122;11.560;2023-10-08T05:44:06;16.20;91.30
23497;DHT22;11925;48.122;11.560;2023-10-08T05:47:05;16.20;91.90
23497;DHT22;11925;48.122;11.560;2023-10-08T05:49:51;16.20;92.30
23497;DHT22;11925;48.122;11.560;2023-10-08T05:52:42;16.30;92.40
23497;DHT22;11925;48.122;11.560;2023-10-08T05:55:18;16.30;92.10
23497;DHT22;11925;48.122;11.560;2023-10-08T05:57:54;16.30;91.80
23497;DHT22;11925;48.122;11.560;2023-10-08T06:00:30;16.20;92.30
23497;DHT22;11925;48.122;11.560;2023-10-08T06:03:13;16.20;92.40
23497;DHT22;11925;48.122;11.560;2023-10-08T06:06:00;16.20;92.60
23497;DHT22;11925;48.122;11.560;2023-10-08T06:08:46;16.20;93.20
23497;DHT22;11925;48.122;11.560;2023-10-08T06:11:34;16.20;93.40
23497;DHT22;11925;48.122;11.560;2023-10-08T06:14:12;16.20;93.70
23497;DHT22;11925;48.122;11.560;2023-10-08T06:16:55;16.30;93.70
23497;DHT22;11925;48.122;11.560;2023-10-08T06:19:40;16.30;93.60
23497;DHT22;11925;48.122;11.560;2023-10-08T06:22:11;16.20;92.20
23497;DHT22;11925;48.122;11.560;2023-10-08T06:24:39;16.20;90.80
23497;DHT22;11925;48.122;11.560;2023-10-08T06:27:07;16.20;89.70
23497;DHT22;11925;48.122;11.560;2023-10-08T06:29:36;16.20;88.80
23497;DHT22;11925;48.122;11.560;2023-10-08T06:32:12;16.20;87.20
23497;DHT22;11925;48.122;11.560;2023-10-08T06:34:40;16.20;86.50
23497;DHT22;11925;48.122;11.560;2023-10-08T06:37:08;16.30;86.30
23497;DHT22;11925;48.122;11.560;2023-10-08T06:39:38;16.20;85.90
23497;DHT22;11925;48.122;11.560;2023-10-08T06:42:15;16.20;85.40
23497;DHT22;11925;48.122;11.560;2023-10-08T06:44:45;16.20;86.00
23497;DHT22;11925;48.122;11.560;2023-10-08T06:47:16;16.20;86.10
23497;DHT22;11925;48.122;11.560;2023-10-08T06:49:46;16.20;86.70
23497;DHT22;11925;48.122;11.560;2023-10-08T06:52:14;16.30;86.50
23497;DHT22;11925;48.122;11.560;2023-10-08T06:54:47;16.30;86.20
23497;DHT22;11925;48.122;11.560;2023-10-08T06:57:15;16.20;86.70
23497;DHT22;11925;48.122;11.560;2023-10-08T06:59:47;16.20;86.90
23497;DHT22;11925;48.122;11.560;2023-10-08T07:02:17;16.20;87.40
23497;DHT22;11925;48.122;11.560;2023-10-08T07:04:47;16.30;87.70
23497;DHT22;11925;48.122;11.560;2023-10-08T07:07:18;16.30;87.10
23497;DHT22;11925;48.122;11.560;2023-10-08T07:09:48;16.30;86.80
23497;DHT22;11925;48.122;11.560;2023-10-08T07:12:18;16.30;86.30
23497;DHT22;11925;48.122;11.560;2023-10-08T07:14:51;16.30;86.00
23497;DHT22;11925;48.122;11.560;2023-10-08T07:17:21;16.20;85.60
23497;DHT22;11925;48.122;11.560;2023-10-08T07:19:54;16.30;85.70
23497;DHT22;11925;48.122;11.560;2023-10-08T07:22:24;16.30;85.80
23497;DHT22;11925;48.122;11.560;2023-10-08T07:24:57;16.30;85.90
23497;DHT22;11925;48.122;11.560;2023-10-08T07:27:26;16.30;86.50
23497;DHT22;11925;48.122;11.560;2023-10-08T07:29:59;16.30;85.90
23497;DHT22;11925;48.122;11.560;2023-10-08T07:32:30;16.30;87.20
23497;DHT22;11925;48.122;11.560;2023-10-08T07:34:58;16.30;86.20
23497;DHT22;11925;48.122;11.560;2023-10-08T07:37:42;16.30;86.50
23497;DHT22;11925;48.122;11.560;2023-10-08T07:40:14;16.30;86.90
23497;DHT22;11925;48.122;11.560;2023-10-08T07:42:42;16.30;86.70
23497;DHT22;11925;48.122;11.560;2023-10-08T07:45:11;16.30;87.10
23497;DHT22;11925;48.122;11.560;2023-10-08T07:47:44;16.30;87.20
23497;DHT22;11925;48.122;11.560;2023-10-08T07:50:13;16.30;87.80
23497;DHT22;11925;48.122;11.560;2023-10-08T07:52:43;16.30;87.80
23497;DHT22;11925;48.122;11.560;2023-10-08T07:55:13;16.40;88.10
23497;DHT22;11925;48.122;11.560;2023-10-08T07:57:45;16.30;88.50
23497;DHT22;11925;48.122;11.560;2023-10-08T08:00:15;16.30;88.40
23497;DHT22;11925;48.122;11.560;2023-10-08T08:02:50;16.30;88.10
23497;DHT22;11925;48.122;11.560;2023-10-08T08:05:19;16.30;87.90
23497;DHT22;11925;48.122;11.560;2023-10-08T08:07:48;16.40;87.50
23497;DHT22;11925;48.122;11.560;2023-10-08T08:10:20;16.40;86.70
23497;DHT22;11925;48.122;11.560;2023-10-08T08:12:50;16.40;86.60
23497;DHT22;11925;48.122;11.560;2023-10-08T08:15:24;16.40;86.70
23497;DHT22;11925;48.122;11.560;2023-10-08T08:17:54;16.40;87.50
23497;DHT22;11925;48.122;11.560;2023-10-08T08:20:23;16.40;87.70
23497;DHT22;11925;48.122;11.560;2023-10-08T08:23:02;16.40;87.70
23497;DHT22;11925;48.122;11.560;2023-10-08T08:25:39;16.40;87.90
23497;DHT22;11925;48.122;11.560;2023-10-08T08:28:22;16.40;87.90
23497;DHT22;11925;48.122;11.560;2023-10-08T08:30:52;16.40;88.10
23497;DHT22;11925;48.122;11.560;2023-10-08T08:33:22;16.40;87.90
23497;DHT22;11925;48.122;11.560;2023-10-08T08:36:00;16.40;87.80
23497;DHT22;11925;48.122;11.560;2023-10-08T08:38:29;16.40;87.90
23497;DHT22;11925;48.122;11.560;2023-10-08T08:41:04;16.40;88.20
23497;DHT22;11925;48.122;11.560;2023-10-08T08:43:34;16.40;88.50
23497;DHT22;11925;48.122;11.560;2023-10-08T08:46:04;16.40;88.40
23497;DHT22;11925;48.122;11.560;2023-10-08T08:48:34;16.40;88.40
23497;DHT22;11925;48.122;11.560;2023-10-08T08:51:06;16.40;88.50
23497;DHT22;11925;48.122;11.560;2023-10-08T08:53:36;16.40;88.70
23497;DHT22;11925;48.122;11.560;2023-10-08T08:56:08;16.40;88.90
23497;DHT22;11925;48.122;11.560;2023-10-08T08:58:37;16.40;89.30
23497;DHT22;11925;48.122;11.560;2023-10-08T09:01:10;16.40;89.90
23497;DHT22;11925;48.122;11.560;2023-10-08T09:03:40;16.40;90.00
23497;DHT22;11925;48.122;11.560;2023-10-08T09:06:09;16.40;90.10
23497;DHT22;11925;48.122;11.560;2023-10-08T09:08:38;16.40;90.10
23497;DHT22;11925;48.122;11.560;2023-10-08T09:11:17;16.40;90.30
23497;DHT22;11925;48.122;11.560;2023-10-08T09:13:46;16.40;90.50
23497;DHT22;11925;48.122;11.560;2023-10-08T09:16:16;16.40;90.60
23497;DHT22;11925;48.122;11.560;2023-10-08T09:18:45;16.40;90.80
23497;DHT22;11925;48.122;11.560;2023-10-08T09:21:17;16.40;90.90
23497;DHT22;11925;48.122;11.560;2023-10-08T09:23:50;16.40;91.00
23497;DHT22;11925;48.122;11.560;2023-10-08T09:26:23;16.40;91.00
23497;DHT22;11925;48.122;11.560;2023-10-08T09:28:52;16.40;91.20
23497;DHT22;11925;48.122;11.560;2023-10-08T09:31:23;16.40;91.40
23497;DHT22;11925;48.122;11.560;2023-10-08T09:33:55;16.40;91.40
23497;DHT22;11925;48.122;11.560;2023-10-08T09:36:25;16.40;91.50
23497;DHT22;11925;48.122;11.560;2023-10-08T09:39:01;16.40;91.70
23497;DHT22;11925;48.122;11.560;2023-10-08T09:41:33;16.40;91.80
23497;DHT22;11925;48.122;11.560;2023-10-08T09:44:04;16.40;92.00
23497;DHT22;11925;48.122;11.560;2023-10-08T09:46:40;16.40;92.10
23497;DHT22;11925;48.122;11.560;2023-10-08T09:49:13;16.40;92.10
23497;DHT22;11925;48.122;11.560;2023-10-08T09:51:46;16.40;92.20
23497;DHT22;11925;48.122;11.560;2023-10-08T09:54:20;16.40;92.30
23497;DHT22;11925;48.122;11.560;2023-10-08T09:56:51;16.40;92.30
23497;DHT22;11925;48.122;11.560;2023-10-08T09:59:21;16.40;92.50
23497;DHT22;11925;48.122;11.560;2023-10-08T10:01:50;16.40;92.60
23497;DHT22;11925;48.122;11.560;2023-10-08T10:04:23;16.40;93.00
23497;DHT22;11925;48.122;11.560;2023-10-08T10:06:52;16.40;92.70
23497;DHT22;11925;48.122;11.560;2023-10-08T10:09:22;16.40;92.80
23497;DHT22;11925;48.122;11.560;2023-10-08T10:11:54;16.40;92.80
23497;DHT22;11925;48.122;11.560;2023-10-08T10:14:24;16.40;92.90
23497;DHT22;11925;48.122;11.560;2023-10-08T10:17:09;16.40;92.80
23497;DHT22;11925;48.122;11.560;2023-10-08T10:19:45;16.40;92.80
23497;DHT22;11925;48.122;11.560;2023-10-08T10:22:15;16.50;92.70
23497;DHT22;11925;48.122;11.560;2023-10-08T10:24:55;16.50;92.80
23497;DHT22;11925;48.122;11.560;2023-10-08T10:27:26;16.50;92.70
23497;DHT22;11925;48.122;11.560;2023-10-08T10:30:02;16.50;92.60
23497;DHT22;11925;48.122;11.560;2023-10-08T10:32:35;16.50;92.40
23497;DHT22;11925;48.122;11.560;2023-10-08T10:35:04;16.50;92.40
23497;DHT22;11925;48.122;11.560;2023-10-08T10:37:34;16.50;92.30
23497;DHT22;11925;48.122;11.560;2023-10-08T10:40:09;16.60;92.30
23497;DHT22;11925;48.122;11.560;2023-10-08T10:42:41;16.60;92.30
23497;DHT22;11925;48.122;11.560;2023-10-08T10:45:14;16.60;92.40
23497;DHT22;11925;48.122;11.560;2023-10-08T10:48:03;16.60;92.40
23497;DHT22;11925;48.122;11.560;2023-10-08T10:50:41;16.60;92.50
23497;DHT22;11925;48.122;11.560;2023-10-08T10:53:17;16.60;92.40
23497;DHT22;11925;48.122;11.560;2023-10-08T10:55:46;16.60;92.50
23497;DHT22;11925;48.122;11.560;2023-10-08T10:58:27;16.60;92.60
23497;DHT22;11925;48.122;11.560;2023-10-08T11:01:05;16.60;92.90
23497;DHT22;11925;48.122;11.560;2023-10-08T11:03:43;16.50;93.20
23497;DHT22;11925;48.122;11.560;2023-10-08T11:06:15;16.50;93.30
23497;DHT22;11925;48.122;11.560;2023-10-08T11:08:50;16.50;93.40
23497;DHT22;11925;48.122;11.560;2023-10-08T11:11:26;16.50;93.60
23497;DHT22;11925;48.122;11.560;2023-10-08T11:13:58;16.50;93.70
23497;DHT22;11925;48.122;11.560;2023-10-08T11:16:28;16.50;93.80
23497;DHT22;11925;48.122;11.560;2023-10-08T11:18:59;16.50;93.90
23497;DHT22;11925;48.122;11.560;2023-10-08T11:21:48;16.50;94.30
23497;DHT22;11925;48.122;11.560;2023-10-08T11:24:27;16.50;94.50
23497;DHT22;11925;48.122;11.560;2023-10-08T11:26:56;16.50;94.50
23497;DHT22;11925;48.122;11.560;2023-10-08T11:29:45;16.40;94.70
23497;DHT22;11925;48.122;11.560;2023-10-08T11:32:15;16.50;94.80
23497;DHT22;11925;48.122;11.560;2023-10-08T11:34:46;16.50;95.30
23497;DHT22;11925;48.122;11.560;2023-10-08T11:39:55;16.50;94.80
23497;DHT22;11925;48.122;11.560;2023-10-08T11:42:26;16.50;95.00
23497;DHT22;11925;48.122;11.560;2023-10-08T11:45:09;16.50;95.10
23497;DHT22;11925;48.122;11.560;2023-10-08T11:47:51;16.50;95.20
23497;DHT22;11925;48.122;11.560;2023-10-08T11:50:25;16.50;95.20
23497;DHT22;11925;48.122;11.560;2023-10-08T11:52:58;16.50;95.20
23497;DHT22;11925;48.122;11.560;2023-10-08T11:55:33;16.60;95.30
23497;DHT22;11925;48.122;11.560;2023-10-08T11:58:04;16.50;95.30
23497;DHT22;11925;48.122;11.560;2023-10-08T12:00:39;16.50;95.30
23497;DHT22;11925;48.122;11.560;2023-10-08T12:03:14;16.50;95.20
23497;DHT22;11925;48.122;11.560;2023-10-08T12:05:46;16.60;95.20
23497;DHT22;11925;48.122;11.560;2023-10-08T12:08:26;16.60;95.10
23497;DHT22;11925;48.122;11.560;2023-10-08T12:10:56;16.60;95.10
23497;DHT22;11925;48.122;11.560;2023-10-08T12:13:27;16.60;95.10
23497;DHT22;11925;48.122;11.560;2023-10-08T12:15:57;16.60;95.20
23497;DHT22;11925;48.122;11.560;2023-10-08T12:18:33;16.60;95.20
23497;DHT22;11925;48.122;11.560;2023-10-08T12:21:07;16.60;95.30
23497;DHT22;11925;48.122;11.560;2023-10-08T12:23:38;16.60;95.20
23497;DHT22;11925;48.122;11.560;2023-10-08T12:26:08;16.60;95.20
23497;DHT22;11925;48.122;11.560;2023-10-08T12:28:36;16.60;95.20
23497;DHT22;11925;48.122;11.560;2023-10-08T12:31:06;16.60;95.10
23497;DHT22;11925;48.122;11.560;2023-10-08T12:33:37;16.60;95.20
23497;DHT22;11925;48.122;11.560;2023-10-08T12:36:07;16.60;95.20
23497;DHT22;11925;48.122;11.560;2023-10-08T12:38:39;16.60;95.30
23497;DHT22;11925;48.122;11.560;2023-10-08T12:41:09;16.60;95.60
23497;DHT22;11925;48.122;11.560;2023-10-08T12:43:40;16.50;95.60
23497;DHT22;11925;48.122;11.560;2023-10-08T12:46:14;16.60;95.80
23497;DHT22;11925;48.122;11.560;2023-10-08T12:48:46;16.60;95.70
23497;DHT22;11925;48.122;11.560;2023-10-08T12:51:20;16.60;95.70
23497;DHT22;11925;48.122;11.560;2023-10-08T12:53:52;16.60;95.70
23497;DHT22;11925;48.122;11.560;2023-10-08T12:56:31;16.60;95.70
23497;DHT22;11925;48.122;11.560;2023-10-08T12:59:07;16.60;95.70
23497;DHT22;11925;48.122;11.560;2023-10-08T13:01:36;16.60;95.60
23497;DHT22;11925;48.122;11.560;2023-10-08T13:04:08;16.60;95.60
23497;DHT22;11925;48.122;11.560;2023-10-08T13:06:43;16.60;95.70
23497;DHT22;11925;48.122;11.560;2023-10-08T13:09:13;16.60;95.70
23497;DHT22;11925;48.122;11.560;2023-10-08T13:11:41;16.60;95.80
23497;DHT22;11925;48.122;11.560;2023-10-08T13:14:10;16.60;95.90
23497;DHT22;11925;48.122;11.560;2023-10-08T13:16:41;16.60;95.90
23497;DHT22;11925;48.122;11.560;2023-10-08T13:19:12;16.60;96.10
23497;DHT22;11925;48.122;11.560;2023-10-08T13:21:42;16.60;96.20
23497;DHT22;11925;48.122;11.560;2023-10-08T13:24:11;16.60;96.40
23497;DHT22;11925;48.122;11.560;2023-10-08T13:26:40;16.60;96.70
23497;DHT22;11925;48.122;11.560;2023-10-08T13:29:09;16.60;96.80
23497;DHT22;11925;48.122;11.560;2023-10-08T13:31:38;16.60;96.60
23497;DHT22;11925;48.122;11.560;2023-10-08T13:34:08;16.60;96.50
23497;DHT22;11925;48.122;11.560;2023-10-08T13:36:39;16.60;96.30
23497;DHT22;11925;48.122;11.560;2023-10-08T13:39:09;16.60;96.40
23497;DHT22;11925;48.122;11.560;2023-10-08T13:41:46;16.60;96.40
23497;DHT22;11925;48.122;11.560;2023-10-08T13:44:16;16.60;96.50
23497;DHT22;11925;48.122;11.560;2023-10-08T13:46:46;16.60;96.60
23497;DHT22;11925;48.122;11.560;2023-10-08T13:49:18;16.60;96.70
23497;DHT22;11925;48.122;11.560;2023-10-08T13:51:47;16.60;96.80
23497;DHT22;11925;48.122;11.560;2023-10-08T13:54:23;16.60;97.00
23497;DHT22;11925;48.122;11.560;2023-10-08T13:56:56;16.60;97.20
23497;DHT22;11925;48.122;11.560;2023-10-08T13:59:26;16.60;97.10
23497;DHT22;11925;48.122;11.560;2023-10-08T14:01:59;16.60;97.00
23497;DHT22;11925;48.122;11.560;2023-10-08T14:04:31;16.60;97.00
23497;DHT22;11925;48.122;11.560;2023-10-08T14:07:07;16.60;96.90
23497;DHT22;11925;48.122;11.560;2023-10-08T14:09:37;16.70;96.80
23497;DHT22;11925;48.122;11.560;2023-10-08T14:12:06;16.70;96.70
23497;DHT22;11925;48.122;11.560;2023-10-08T14:14:35;16.70;96.70
23497;DHT22;11925;48.122;11.560;2023-10-08T14:17:08;16.70;96.80
23497;DHT22;11925;48.122;11.560;2023-10-08T14:19:43;16.70;96.70
23497;DHT22;11925;48.122;11.560;2023-10-08T14:22:19;16.70;96.70
23497;DHT22;11925;48.122;11.560;2023-10-08T14:24:49;16.70;96.70
23497;DHT22;11925;48.122;11.560;2023-10-08T14:27:26;16.70;97.20
23497;DHT22;11925;48.122;11.560;2023-10-08T14:29:59;16.70;96.80
23497;DHT22;11925;48.122;11.560;2023-10-08T14:32:28;16.70;96.80
23497;DHT22;11925;48.122;11.560;2023-10-08T14:35:00;16.70;96.90
23497;DHT22;11925;48.122;11.560;2023-10-08T14:37:46;16.70;97.10
23497;DHT22;11925;48.122;11.560;2023-10-08T14:40:32;16.70;97.20
23497;DHT22;11925;48.122;11.560;2023-10-08T14:43:18;16.70;97.20
23497;DHT22;11925;48.122;11.560;2023-10-08T14:45:49;16.60;97.40
23497;DHT22;11925;48.122;11.560;2023-10-08T14:48:20;16.60;97.60
23497;DHT22;11925;48.122;11.560;2023-10-08T14:50:51;16.60;97.70
23497;DHT22;11925;48.122;11.560;2023-10-08T14:53:21;16.60;97.90
23497;DHT22;11925;48.122;11.560;2023-10-08T14:55:51;16.60;97.90
23497;DHT22;11925;48.122;11.560;2023-10-08T14:58:20;16.60;98.30
23497;DHT22;11925;48.122;11.560;2023-10-08T15:00:52;16.60;98.80
23497;DHT22;11925;48.122;11.560;2023-10-08T15:03:21;16.60;99.20
23497;DHT22;11925;48.122;11.560;2023-10-08T15:05:51;16.60;99.10
23497;DHT22;11925;48.122;11.560;2023-10-08T15:08:20;16.60;99.10
23497;DHT22;11925;48.122;11.560;2023-10-08T15:10:49;16.60;98.90
23497;DHT22;11925;48.122;11.560;2023-10-08T15:13:17;16.60;98.80
23497;DHT22;11925;48.122;11.560;2023-10-08T15:15:45;16.60;99.00
23497;DHT22;11925;48.122;11.560;2023-10-08T15:18:14;16.60;99.30
23497;DHT22;11925;48.122;11.560;2023-10-08T15:20:42;16.60;99.60
23497;DHT22;11925;48.122;11.560;2023-10-08T15:23:12;16.60;99.90
23497;DHT22;11925;48.122;11.560;2023-10-08T15:25:40;16.60;99.80
23497;DHT22;11925;48.122;11.560;2023-10-08T15:28:09;16.60;99.70
23497;DHT22;11925;48.122;11.560;2023-10-08T15:30:37;16.60;99.90
23497;DHT22;11925;48.122;11.560;2023-10-08T15:33:07;16.60;99.90
23497;DHT22;11925;48.122;11.560;2023-10-08T15:35:35;16.60;99.90
23497;DHT22;11925;48.122;11.560;2023-10-08T15:38:04;16.50;99.90
23497;DHT22;11925;48.122;11.560;2023-10-08T15:40:34;16.50;99.90
23497;DHT22;11925;48.122;11.560;2023-10-08T15:43:02;16.50;99.90
23497;DHT22;11925;48.122;11.560;2023-10-08T15:45:31;16.50;99.90
23497;DHT22;11925;48.122;11.560;2023-10-08T15:47:59;16.50;99.90
23497;DHT22;11925;48.122;11.560;2023-10-08T15:50:29;16.50;99.90
23497;DHT22;11925;48.122;11.560;2023-10-08T15:53:00;16.50;99.90
23497;DHT22;11925;48.122;11.560;2023-10-08T15:55:28;16.50;99.90
23497;DHT22;11925;48.122;11.560;2023-10-08T15:57:59;16.60;99.90